sensor_id;sensor_type;location;lat;lon;timestamp;temperature;humidity
21627;DHT22;10975;47.872;12.972;2022-08-11T00:01:48;15.40;99.90
21627;DHT22;10975;47.872;12.972;2022-08-11T00:04:15;15.30;99.90
21627;DHT22;10975;47.872;12.972;2022-08-11T00:06:43;15.30;99.90
21627;DHT22;10975;47.872;12.972;2022-08-11T00:09:15;15.30;99.90
21627;DHT22;10975;47.872;12.972;2022-08-11T00:11:44;15.30;99.90
21627;DHT22;10975;47.872;12.972;2022-08-11T00:14:18;15.20;99.90
21627;DHT22;10975;47.872;12.972;2022-08-11T00:17:05;15.20;99.90
21627;DHT22;10975;47.872;12.972;2022-08-11T00:19:39;15.10;99.90
21627;DHT22;10975;47.872;12.972;2022-08-11T00:22:28;15.10;99.90
21627;DHT22;10975;47.872;12.972;2022-08-11T00:24:55;15.00;99.90
21627;DHT22;10975;47.872;12.972;2022-08-11T00:27:31;15.00;99.90
21627;DHT22;10975;47.872;12.972;2022-08-11T00:29:58;14.90;99.90
21627;DHT22;10975;47.872;12.972;2022-08-11T00:32:25;14.90;99.90
21627;DHT22;10975;47.872;12.972;2022-08-11T00:34:53;14.90;99.90
21627;DHT22;10975;47.872;12.972;2022-08-11T00:37:43;14.80;99.90
21627;DHT22;10975;47.872;12.972;2022-08-11T00:40:14;14.80;99.90
21627;DHT22;10975;47.872;12.972;2022-08-11T00:42:48;14.70;99.90
21627;DHT22;10975;47.872;12.972;2022-08-11T00:47:54;14.70;99.90
21627;DHT22;10975;47.872;12.972;2022-08-11T00:50:35;14.70;99.90
21627;DHT22;10975;47.872;12.972;2022-08-11T00:53:11;14.70;99.90
21627;DHT22;10975;47.872;12.972;2022-08-11T01:49:12;14.20;99.90
21627;DHT22;10975;47.872;12.972;2022-08-11T01:51:30;14.10;99.90
21627;DHT22;10975;47.872;12.972;2022-08-11T01:59:40;14.00;99.90
21627;DHT22;10975;47.872;12.972;2022-08-11T02:07:32;14.00;99.90
21627;DHT22;10975;47.872;12.972;2022-08-11T02:10:06;14.00;99.90
21627;DHT22;10975;47.872;12.972;2022-08-11T02:13:13;14.00;99.90
21627;DHT22;10975;47.872;12.972;2022-08-11T02:15:44;13.90;99.90
21627;DHT22;10975;47.872;12.972;2022-08-11T02:18:59;13.90;99.90
21627;DHT22;10975;47.872;12.972;2022-08-11T02:21:36;13.90;99.90
21627;DHT22;10975;47.872;12.972;2022-08-11T02:24:25;13.90;99.90
21627;DHT22;10975;47.872;12.972;2022-08-11T02:27:40;13.80;99.90
21627;DHT22;10975;47.872;12.972;2022-08-11T02:29:54;13.70;99.90
21627;DHT22;10975;47.872;12.972;2022-08-11T02:32:35;13.70;99.90
21627;DHT22;10975;47.872;12.972;2022-08-11T02:35:26;13.70;99.90
21627;DHT22;10975;47.872;12.972;2022-08-11T02:48:31;13.50;99.90
21627;DHT22;10975;47.872;12.972;2022-08-11T02:53:53;13.50;99.90
21627;DHT22;10975;47.872;12.972;2022-08-11T02:59:06;13.40;99.90
21627;DHT22;10975;47.872;12.972;2022-08-11T03:02:04;13.40;99.90
21627;DHT22;10975;47.872;12.972;2022-08-11T03:10:24;13.30;99.90
21627;DHT22;10975;47.872;12.972;2022-08-11T03:21:31;13.30;99.90
21627;DHT22;10975;47.872;12.972;2022-08-11T03:24:25;13.20;99.90
21627;DHT22;10975;47.872;12.972;2022-08-11T03:27:02;13.20;99.90
21627;DHT22;10975;47.872;12.972;2022-08-11T03:32:01;13.20;99.90
21627;DHT22;10975;47.872;12.972;2022-08-11T03:34:30;13.20;99.90
21627;DHT22;10975;47.872;12.972;2022-08-11T03:40:02;13.10;99.90
21627;DHT22;10975;47.872;12.972;2022-08-11T03:42:45;13.20;99.90
21627;DHT22;10975;47.872;12.972;2022-08-11T03:45:20;13.20;99.90
21627;DHT22;10975;47.872;12.972;2022-08-11T03:50:25;13.10;99.90
21627;DHT22;10975;47.872;12.972;2022-08-11T03:57:53;13.10;99.90
21627;DHT22;10975;47.872;12.972;2022-08-11T04:03:17;13.10;99.90
21627;DHT22;10975;47.872;12.972;2022-08-11T04:16:53;13.00;99.90
21627;DHT22;10975;47.872;12.972;2022-08-11T04:22:20;13.10;99.90
21627;DHT22;10975;47.872;12.972;2022-08-11T04:30:13;13.20;99.90
21627;DHT22;10975;47.872;12.972;2022-08-11T04:43:56;13.30;99.90
21627;DHT22;10975;47.872;12.972;2022-08-11T05:15:01;13.90;99.90
21627;DHT22;10975;47.872;12.972;2022-08-11T05:17:58;14.00;99.90
21627;DHT22;10975;47.872;12.972;2022-08-11T05:20:49;14.00;99.90
21627;DHT22;10975;47.872;12.972;2022-08-11T05:23:35;14.10;99.90
21627;DHT22;10975;47.872;12.972;2022-08-11T05:26:23;14.10;99.90
21627;DHT22;10975;47.872;12.972;2022-08-11T05:32:29;14.30;99.90
21627;DHT22;10975;47.872;12.972;2022-08-11T05:35:16;14.40;99.90
21627;DHT22;10975;47.872;12.972;2022-08-11T05:38:17;14.40;99.90
21627;DHT22;10975;47.872;12.972;2022-08-11T05:41:05;14.50;99.90
21627;DHT22;10975;47.872;12.972;2022-08-11T05:43:51;14.60;99.90
21627;DHT22;10975;47.872;12.972;2022-08-11T05:46:48;14.60;99.90
21627;DHT22;10975;47.872;12.972;2022-08-11T05:49:33;14.70;99.90
21627;DHT22;10975;47.872;12.972;2022-08-11T05:52:22;14.70;99.90
21627;DHT22;10975;47.872;12.972;2022-08-11T05:55:09;14.80;99.90
21627;DHT22;10975;47.872;12.972;2022-08-11T05:57:55;14.90;99.90
21627;DHT22;10975;47.872;12.972;2022-08-11T06:00:22;14.90;99.90
21627;DHT22;10975;47.872;12.972;2022-08-11T06:02:52;15.00;99.90
21627;DHT22;10975;47.872;12.972;2022-08-11T06:05:21;15.10;99.90
21627;DHT22;10975;47.872;12.972;2022-08-11T06:07:52;15.10;99.90
21627;DHT22;10975;47.872;12.972;2022-08-11T06:10:28;15.20;99.90
21627;DHT22;10975;47.872;12.972;2022-08-11T06:12:56;15.30;99.90
21627;DHT22;10975;47.872;12.972;2022-08-11T06:15:23;15.40;99.90
21627;DHT22;10975;47.872;12.972;2022-08-11T06:17:50;15.50;99.90
21627;DHT22;10975;47.872;12.972;2022-08-11T06:20:17;15.60;99.90
21627;DHT22;10975;47.872;12.972;2022-08-11T06:22:45;15.60;99.90
21627;DHT22;10975;47.872;12.972;2022-08-11T06:25:18;15.70;99.90
21627;DHT22;10975;47.872;12.972;2022-08-11T06:27:45;15.80;99.90
21627;DHT22;10975;47.872;12.972;2022-08-11T06:30:12;15.80;99.90
21627;DHT22;10975;47.872;12.972;2022-08-11T06:32:44;16.00;99.90
21627;DHT22;10975;47.872;12.972;2022-08-11T06:35:16;16.10;99.90
21627;DHT22;10975;47.872;12.972;2022-08-11T06:38:07;16.20;99.90
21627;DHT22;10975;47.872;12.972;2022-08-11T06:46:25;16.70;99.90
21627;DHT22;10975;47.872;12.972;2022-08-11T06:48:54;16.80;99.90
21627;DHT22;10975;47.872;12.972;2022-08-11T06:51:21;16.80;99.90
21627;DHT22;10975;47.872;12.972;2022-08-11T06:53:53;16.80;99.90
21627;DHT22;10975;47.872;12.972;2022-08-11T06:56:31;16.90;99.90
21627;DHT22;10975;47.872;12.972;2022-08-11T06:59:39;17.00;99.90
21627;DHT22;10975;47.872;12.972;2022-08-11T07:02:29;17.10;99.90
21627;DHT22;10975;47.872;12.972;2022-08-11T07:05:00;17.20;99.90
21627;DHT22;10975;47.872;12.972;2022-08-11T07:10:25;17.40;99.90
21627;DHT22;10975;47.872;12.972;2022-08-11T07:13:13;17.60;99.90
21627;DHT22;10975;47.872;12.972;2022-08-11T07:16:13;17.70;99.90
21627;DHT22;10975;47.872;12.972;2022-08-11T07:18:41;17.70;99.90
21627;DHT22;10975;47.872;12.972;2022-08-11T07:21:30;17.80;99.90
21627;DHT22;10975;47.872;12.972;2022-08-11T07:24:36;17.90;99.90
21627;DHT22;10975;47.872;12.972;2022-08-11T07:27:35;18.00;99.90
21627;DHT22;10975;47.872;12.972;2022-08-11T07:30:21;18.20;99.90
21627;DHT22;10975;47.872;12.972;2022-08-11T07:32:51;18.20;99.90
21627;DHT22;10975;47.872;12.972;2022-08-11T07:35:23;18.20;99.90
21627;DHT22;10975;47.872;12.972;2022-08-11T07:37:55;18.30;99.90
21627;DHT22;10975;47.872;12.972;2022-08-11T07:40:28;18.40;99.90
21627;DHT22;10975;47.872;12.972;2022-08-11T07:42:55;18.50;99.90
21627;DHT22;10975;47.872;12.972;2022-08-11T07:45:23;18.60;99.90
21627;DHT22;10975;47.872;12.972;2022-08-11T07:48:09;18.60;99.90
21627;DHT22;10975;47.872;12.972;2022-08-11T07:50:54;18.80;99.90
21627;DHT22;10975;47.872;12.972;2022-08-11T07:53:40;18.80;99.90
21627;DHT22;10975;47.872;12.972;2022-08-11T07:56:27;19.00;99.90
21627;DHT22;10975;47.872;12.972;2022-08-11T07:59:15;19.10;99.90
21627;DHT22;10975;47.872;12.972;2022-08-11T08:02:21;19.30;99.90
21627;DHT22;10975;47.872;12.972;2022-08-11T08:05:06;19.30;99.90
21627;DHT22;10975;47.872;12.972;2022-08-11T08:07:52;19.70;99.90
21627;DHT22;10975;47.872;12.972;2022-08-11T08:10:37;19.70;99.90
21627;DHT22;10975;47.872;12.972;2022-08-11T08:13:22;19.70;99.90
21627;DHT22;10975;47.872;12.972;2022-08-11T08:16:07;19.80;99.90
21627;DHT22;10975;47.872;12.972;2022-08-11T08:18:53;19.90;99.90
21627;DHT22;10975;47.872;12.972;2022-08-11T08:21:20;20.00;99.90
21627;DHT22;10975;47.872;12.972;2022-08-11T08:23:47;20.10;99.90
21627;DHT22;10975;47.872;12.972;2022-08-11T08:26:21;20.20;99.90
21627;DHT22;10975;47.872;12.972;2022-08-11T08:29:13;20.20;99.90
21627;DHT22;10975;47.872;12.972;2022-08-11T08:32:01;20.20;99.90
21627;DHT22;10975;47.872;12.972;2022-08-11T08:34:28;20.40;99.90
21627;DHT22;10975;47.872;12.972;2022-08-11T08:36:59;20.50;99.90
21627;DHT22;10975;47.872;12.972;2022-08-11T08:39:25;20.60;99.90
21627;DHT22;10975;47.872;12.972;2022-08-11T08:41:53;20.60;99.90
21627;DHT22;10975;47.872;12.972;2022-08-11T08:44:20;20.70;99.90
21627;DHT22;10975;47.872;12.972;2022-08-11T08:47:08;20.90;99.90
21627;DHT22;10975;47.872;12.972;2022-08-11T08:49:37;21.00;99.90
21627;DHT22;10975;47.872;12.972;2022-08-11T08:52:06;21.10;99.90
21627;DHT22;10975;47.872;12.972;2022-08-11T08:54:55;21.10;99.90
21627;DHT22;10975;47.872;12.972;2022-08-11T08:57:22;21.20;99.90
21627;DHT22;10975;47.872;12.972;2022-08-11T08:59:49;21.30;99.90
21627;DHT22;10975;47.872;12.972;2022-08-11T09:02:18;21.30;99.90
21627;DHT22;10975;47.872;12.972;2022-08-11T09:04:59;21.40;99.90
21627;DHT22;10975;47.872;12.972;2022-08-11T09:07:26;21.40;99.90
21627;DHT22;10975;47.872;12.972;2022-08-11T09:10:04;21.40;99.90
21627;DHT22;10975;47.872;12.972;2022-08-11T09:12:32;21.40;99.90
21627;DHT22;10975;47.872;12.972;2022-08-11T09:15:04;21.50;99.90
21627;DHT22;10975;47.872;12.972;2022-08-11T09:17:55;21.60;99.90
21627;DHT22;10975;47.872;12.972;2022-08-11T09:20:32;21.70;99.90
21627;DHT22;10975;47.872;12.972;2022-08-11T09:23:03;21.80;99.90
21627;DHT22;10975;47.872;12.972;2022-08-11T09:26:08;21.90;99.90
21627;DHT22;10975;47.872;12.972;2022-08-11T09:28:56;21.90;99.90
21627;DHT22;10975;47.872;12.972;2022-08-11T09:31:24;21.90;99.90
21627;DHT22;10975;47.872;12.972;2022-08-11T09:33:53;21.90;99.90
21627;DHT22;10975;47.872;12.972;2022-08-11T09:36:20;22.10;99.90
21627;DHT22;10975;47.872;12.972;2022-08-11T09:39:06;22.20;99.90
21627;DHT22;10975;47.872;12.972;2022-08-11T09:41:51;22.30;99.90
21627;DHT22;10975;47.872;12.972;2022-08-11T09:44:38;22.30;99.90
21627;DHT22;10975;47.872;12.972;2022-08-11T09:47:25;22.60;99.90
21627;DHT22;10975;47.872;12.972;2022-08-11T09:49:59;22.50;99.90
21627;DHT22;10975;47.872;12.972;2022-08-11T09:52:28;22.60;99.90
21627;DHT22;10975;47.872;12.972;2022-08-11T09:54:56;22.60;99.90
21627;DHT22;10975;47.872;12.972;2022-08-11T09:57:23;22.60;99.90
21627;DHT22;10975;47.872;12.972;2022-08-11T10:00:10;22.60;99.90
21627;DHT22;10975;47.872;12.972;2022-08-11T10:02:40;22.60;99.90
21627;DHT22;10975;47.872;12.972;2022-08-11T10:05:08;22.70;99.90
21627;DHT22;10975;47.872;12.972;2022-08-11T10:07:55;22.70;99.90
21627;DHT22;10975;47.872;12.972;2022-08-11T10:10:22;22.80;99.90
21627;DHT22;10975;47.872;12.972;2022-08-11T10:12:57;22.80;99.90
21627;DHT22;10975;47.872;12.972;2022-08-11T10:15:25;22.80;99.90
21627;DHT22;10975;47.872;12.972;2022-08-11T10:18:08;22.80;99.90
21627;DHT22;10975;47.872;12.972;2022-08-11T10:21:00;23.00;99.90
21627;DHT22;10975;47.872;12.972;2022-08-11T10:23:32;23.10;99.90
21627;DHT22;10975;47.872;12.972;2022-08-11T10:30:14;23.20;99.90
21627;DHT22;10975;47.872;12.972;2022-08-11T10:33:01;23.20;99.90
21627;DHT22;10975;47.872;12.972;2022-08-11T10:36:07;23.20;99.90
21627;DHT22;10975;47.872;12.972;2022-08-11T10:38:42;23.30;99.90
21627;DHT22;10975;47.872;12.972;2022-08-11T10:41:12;23.40;99.90
21627;DHT22;10975;47.872;12.972;2022-08-11T10:43:57;23.40;99.90
21627;DHT22;10975;47.872;12.972;2022-08-11T10:46:29;23.40;99.90
21627;DHT22;10975;47.872;12.972;2022-08-11T10:49:15;23.50;99.90
21627;DHT22;10975;47.872;12.972;2022-08-11T10:51:44;23.60;99.90
21627;DHT22;10975;47.872;12.972;2022-08-11T10:54:30;23.60;99.90
21627;DHT22;10975;47.872;12.972;2022-08-11T10:57:17;23.70;99.90
21627;DHT22;10975;47.872;12.972;2022-08-11T11:00:04;23.80;99.90
21627;DHT22;10975;47.872;12.972;2022-08-11T11:02:32;23.80;99.90
21627;DHT22;10975;47.872;12.972;2022-08-11T11:05:05;23.80;99.90
21627;DHT22;10975;47.872;12.972;2022-08-11T11:07:36;23.80;99.90
21627;DHT22;10975;47.872;12.972;2022-08-11T11:10:10;23.80;99.90
21627;DHT22;10975;47.872;12.972;2022-08-11T11:12:38;23.90;99.90
21627;DHT22;10975;47.872;12.972;2022-08-11T11:15:25;24.00;99.90
21627;DHT22;10975;47.872;12.972;2022-08-11T11:18:23;24.00;99.90
21627;DHT22;10975;47.872;12.972;2022-08-11T11:23:35;24.00;99.90
21627;DHT22;10975;47.872;12.972;2022-08-11T11:34:14;24.20;99.90
21627;DHT22;10975;47.872;12.972;2022-08-11T11:36:49;24.20;99.90
21627;DHT22;10975;47.872;12.972;2022-08-11T11:39:21;24.30;99.90
21627;DHT22;10975;47.872;12.972;2022-08-11T11:41:49;24.30;99.90
21627;DHT22;10975;47.872;12.972;2022-08-11T11:44:16;24.30;99.90
21627;DHT22;10975;47.872;12.972;2022-08-11T11:46:43;24.30;99.90
21627;DHT22;10975;47.872;12.972;2022-08-11T11:49:11;24.30;99.90
21627;DHT22;10975;47.872;12.972;2022-08-11T11:51:43;24.30;99.90
21627;DHT22;10975;47.872;12.972;2022-08-11T11:54:15;24.30;99.90
21627;DHT22;10975;47.872;12.972;2022-08-11T11:56:43;24.30;99.90
21627;DHT22;10975;47.872;12.972;2022-08-11T11:59:10;24.50;99.90
21627;DHT22;10975;47.872;12.972;2022-08-11T12:01:56;24.60;99.90
21627;DHT22;10975;47.872;12.972;2022-08-11T12:04:23;24.60;99.90
21627;DHT22;10975;47.872;12.972;2022-08-11T12:06:51;24.70;99.90
21627;DHT22;10975;47.872;12.972;2022-08-11T12:09:38;24.80;99.90
21627;DHT22;10975;47.872;12.972;2022-08-11T12:12:05;24.90;99.90
21627;DHT22;10975;47.872;12.972;2022-08-11T12:14:51;24.90;99.90
21627;DHT22;10975;47.872;12.972;2022-08-11T12:17:19;25.00;99.90
21627;DHT22;10975;47.872;12.972;2022-08-11T12:19:46;25.00;99.90
21627;DHT22;10975;47.872;12.972;2022-08-11T12:22:14;25.00;99.90
21627;DHT22;10975;47.872;12.972;2022-08-11T12:24:59;25.00;99.90
21627;DHT22;10975;47.872;12.972;2022-08-11T12:27:45;25.10;98.70
21627;DHT22;10975;47.872;12.972;2022-08-11T12:30:12;25.10;97.20
21627;DHT22;10975;47.872;12.972;2022-08-11T12:32:39;25.10;97.30
21627;DHT22;10975;47.872;12.972;2022-08-11T12:35:07;25.20;98.30
21627;DHT22;10975;47.872;12.972;2022-08-11T12:37:34;25.20;96.80
21627;DHT22;10975;47.872;12.972;2022-08-11T12:40:06;25.20;96.70
21627;DHT22;10975;47.872;12.972;2022-08-11T12:43:17;25.30;96.80
21627;DHT22;10975;47.872;12.972;2022-08-11T12:46:24;25.50;98.80
21627;DHT22;10975;47.872;12.972;2022-08-11T12:48:55;25.60;99.10
21627;DHT22;10975;47.872;12.972;2022-08-11T12:51:42;25.80;98.50
21627;DHT22;10975;47.872;12.972;2022-08-11T12:54:48;25.90;97.20
21627;DHT22;10975;47.872;12.972;2022-08-11T12:57:37;25.90;97.50
21627;DHT22;10975;47.872;12.972;2022-08-11T13:00:23;25.90;97.30
21627;DHT22;10975;47.872;12.972;2022-08-11T13:03:09;25.90;96.80
21627;DHT22;10975;47.872;12.972;2022-08-11T13:05:56;25.90;96.00
21627;DHT22;10975;47.872;12.972;2022-08-11T13:08:23;26.00;97.50
21627;DHT22;10975;47.872;12.972;2022-08-11T13:10:51;26.10;97.20
21627;DHT22;10975;47.872;12.972;2022-08-11T13:13:38;26.00;94.70
21627;DHT22;10975;47.872;12.972;2022-08-11T13:16:27;26.00;94.60
21627;DHT22;10975;47.872;12.972;2022-08-11T13:18:55;26.10;94.90
21627;DHT22;10975;47.872;12.972;2022-08-11T13:21:22;26.10;93.90
21627;DHT22;10975;47.872;12.972;2022-08-11T13:23:53;26.00;95.00
21627;DHT22;10975;47.872;12.972;2022-08-11T13:26:34;26.00;95.00
21627;DHT22;10975;47.872;12.972;2022-08-11T13:29:24;26.10;96.10
21627;DHT22;10975;47.872;12.972;2022-08-11T13:31:52;26.10;94.70
21627;DHT22;10975;47.872;12.972;2022-08-11T13:34:20;26.10;96.10
21627;DHT22;10975;47.872;12.972;2022-08-11T13:36:52;26.00;94.40
21627;DHT22;10975;47.872;12.972;2022-08-11T13:39:24;25.90;93.90
21627;DHT22;10975;47.872;12.972;2022-08-11T13:41:52;26.00;94.40
21627;DHT22;10975;47.872;12.972;2022-08-11T13:44:20;26.00;95.70
21627;DHT22;10975;47.872;12.972;2022-08-11T13:46:58;26.00;94.70
21627;DHT22;10975;47.872;12.972;2022-08-11T13:49:27;26.00;94.80
21627;DHT22;10975;47.872;12.972;2022-08-11T13:51:55;26.10;95.30
21627;DHT22;10975;47.872;12.972;2022-08-11T13:54:23;26.20;94.90
21627;DHT22;10975;47.872;12.972;2022-08-11T13:56:52;26.30;94.10
21627;DHT22;10975;47.872;12.972;2022-08-11T13:59:19;26.30;92.50
21627;DHT22;10975;47.872;12.972;2022-08-11T14:01:51;26.30;94.40
21627;DHT22;10975;47.872;12.972;2022-08-11T14:04:39;26.40;93.00
21627;DHT22;10975;47.872;12.972;2022-08-11T14:07:08;26.50;93.90
21627;DHT22;10975;47.872;12.972;2022-08-11T14:09:36;26.40;93.50
21627;DHT22;10975;47.872;12.972;2022-08-11T14:12:06;26.30;93.40
21627;DHT22;10975;47.872;12.972;2022-08-11T14:15:04;26.30;93.70
21627;DHT22;10975;47.872;12.972;2022-08-11T14:17:34;26.40;94.50
21627;DHT22;10975;47.872;12.972;2022-08-11T14:20:15;26.50;93.20
21627;DHT22;10975;47.872;12.972;2022-08-11T14:23:02;26.60;93.50
21627;DHT22;10975;47.872;12.972;2022-08-11T14:25:29;26.60;92.00
21627;DHT22;10975;47.872;12.972;2022-08-11T14:28:16;26.60;94.60
21627;DHT22;10975;47.872;12.972;2022-08-11T14:31:01;26.60;95.30
21627;DHT22;10975;47.872;12.972;2022-08-11T14:33:29;26.60;92.80
21627;DHT22;10975;47.872;12.972;2022-08-11T14:36:17;26.50;94.30
21627;DHT22;10975;47.872;12.972;2022-08-11T14:38:45;26.50;94.10
21627;DHT22;10975;47.872;12.972;2022-08-11T14:41:12;26.50;93.70
21627;DHT22;10975;47.872;12.972;2022-08-11T14:43:58;26.50;92.80
21627;DHT22;10975;47.872;12.972;2022-08-11T14:46:43;26.50;94.60
21627;DHT22;10975;47.872;12.972;2022-08-11T14:49:28;26.40;92.90
21627;DHT22;10975;47.872;12.972;2022-08-11T14:51:56;26.20;92.10
21627;DHT22;10975;47.872;12.972;2022-08-11T14:54:24;26.00;92.70
21627;DHT22;10975;47.872;12.972;2022-08-11T14:57:09;26.00;93.20
21627;DHT22;10975;47.872;12.972;2022-08-11T14:59:36;25.90;93.00
21627;DHT22;10975;47.872;12.972;2022-08-11T15:02:04;25.90;95.50
21627;DHT22;10975;47.872;12.972;2022-08-11T15:04:50;25.90;94.30
21627;DHT22;10975;47.872;12.972;2022-08-11T15:07:16;25.90;94.70
21627;DHT22;10975;47.872;12.972;2022-08-11T15:09:45;25.90;94.40
21627;DHT22;10975;47.872;12.972;2022-08-11T15:12:32;25.80;95.10
21627;DHT22;10975;47.872;12.972;2022-08-11T15:15:02;25.60;95.80
21627;DHT22;10975;47.872;12.972;2022-08-11T15:17:50;25.60;95.20
21627;DHT22;10975;47.872;12.972;2022-08-11T15:20:18;25.50;95.40
21627;DHT22;10975;47.872;12.972;2022-08-11T15:23:04;25.50;94.40
21627;DHT22;10975;47.872;12.972;2022-08-11T15:26:00;25.60;95.20
21627;DHT22;10975;47.872;12.972;2022-08-11T15:28:28;25.60;94.70
21627;DHT22;10975;47.872;12.972;2022-08-11T15:31:15;25.60;95.00
21627;DHT22;10975;47.872;12.972;2022-08-11T15:34:04;25.70;94.80
21627;DHT22;10975;47.872;12.972;2022-08-11T15:36:50;25.70;94.50
21627;DHT22;10975;47.872;12.972;2022-08-11T15:42:25;25.30;94.30
21627;DHT22;10975;47.872;12.972;2022-08-11T15:45:11;25.20;93.90
21627;DHT22;10975;47.872;12.972;2022-08-11T15:48:05;25.10;93.90
21627;DHT22;10975;47.872;12.972;2022-08-11T15:50:40;25.10;93.90
21627;DHT22;10975;47.872;12.972;2022-08-11T15:53:10;25.10;95.60
21627;DHT22;10975;47.872;12.972;2022-08-11T15:55:37;25.10;94.00
21627;DHT22;10975;47.872;12.972;2022-08-11T15:58:06;24.90;95.00
21627;DHT22;10975;47.872;12.972;2022-08-11T16:00:52;24.80;94.80
21627;DHT22;10975;47.872;12.972;2022-08-11T16:03:48;24.90;95.30
21627;DHT22;10975;47.872;12.972;2022-08-11T16:06:41;25.10;93.90
21627;DHT22;10975;47.872;12.972;2022-08-11T16:09:16;25.10;94.60
21627;DHT22;10975;47.872;12.972;2022-08-11T16:11:45;25.10;94.60
21627;DHT22;10975;47.872;12.972;2022-08-11T16:14:12;25.40;94.10
21627;DHT22;10975;47.872;12.972;2022-08-11T16:16:58;25.80;94.10
21627;DHT22;10975;47.872;12.972;2022-08-11T16:19:26;25.70;92.90
21627;DHT22;10975;47.872;12.972;2022-08-11T16:21:54;25.60;93.20
21627;DHT22;10975;47.872;12.972;2022-08-11T16:24:21;25.70;93.90
21627;DHT22;10975;47.872;12.972;2022-08-11T16:27:10;26.00;93.30
21627;DHT22;10975;47.872;12.972;2022-08-11T16:29:41;26.20;93.90
21627;DHT22;10975;47.872;12.972;2022-08-11T16:32:17;26.10;92.50
21627;DHT22;10975;47.872;12.972;2022-08-11T16:34:49;26.00;92.80
21627;DHT22;10975;47.872;12.972;2022-08-11T16:37:35;25.90;93.20
21627;DHT22;10975;47.872;12.972;2022-08-11T16:40:21;26.00;92.80
21627;DHT22;10975;47.872;12.972;2022-08-11T16:42:49;26.00;92.60
21627;DHT22;10975;47.872;12.972;2022-08-11T16:45:38;26.10;92.70
21627;DHT22;10975;47.872;12.972;2022-08-11T16:48:24;26.20;93.20
21627;DHT22;10975;47.872;12.972;2022-08-11T16:51:02;26.30;92.50
21627;DHT22;10975;47.872;12.972;2022-08-11T16:53:29;26.20;93.10
21627;DHT22;10975;47.872;12.972;2022-08-11T16:56:20;26.20;91.90
21627;DHT22;10975;47.872;12.972;2022-08-11T16:58:59;26.10;91.50
21627;DHT22;10975;47.872;12.972;2022-08-11T17:07:08;26.00;92.30
21627;DHT22;10975;47.872;12.972;2022-08-11T17:10:37;25.80;93.30
21627;DHT22;10975;47.872;12.972;2022-08-11T17:13:28;25.50;92.90
21627;DHT22;10975;47.872;12.972;2022-08-11T17:15:59;25.30;92.80
21627;DHT22;10975;47.872;12.972;2022-08-11T17:18:42;25.10;93.10
21627;DHT22;10975;47.872;12.972;2022-08-11T17:23:40;24.90;93.40
21627;DHT22;10975;47.872;12.972;2022-08-11T17:26:22;24.90;93.70
21627;DHT22;10975;47.872;12.972;2022-08-11T17:28:54;24.80;93.90
21627;DHT22;10975;47.872;12.972;2022-08-11T17:31:22;24.60;93.40
21627;DHT22;10975;47.872;12.972;2022-08-11T17:34:08;24.50;93.90
21627;DHT22;10975;47.872;12.972;2022-08-11T17:36:54;24.30;94.30
21627;DHT22;10975;47.872;12.972;2022-08-11T17:39:25;24.20;93.60
21627;DHT22;10975;47.872;12.972;2022-08-11T17:41:55;24.10;94.00
21627;DHT22;10975;47.872;12.972;2022-08-11T17:44:40;24.00;94.20
21627;DHT22;10975;47.872;12.972;2022-08-11T17:47:26;23.90;94.50
21627;DHT22;10975;47.872;12.972;2022-08-11T17:50:13;23.80;94.50
21627;DHT22;10975;47.872;12.972;2022-08-11T17:52:44;24.30;93.90
21627;DHT22;10975;47.872;12.972;2022-08-11T17:55:30;24.80;93.90
21627;DHT22;10975;47.872;12.972;2022-08-11T17:58:18;24.70;92.80
21627;DHT22;10975;47.872;12.972;2022-08-11T18:01:05;24.30;94.30
21627;DHT22;10975;47.872;12.972;2022-08-11T18:03:35;23.90;94.40
21627;DHT22;10975;47.872;12.972;2022-08-11T18:06:06;23.60;95.70
21627;DHT22;10975;47.872;12.972;2022-08-11T18:08:45;23.40;96.50
21627;DHT22;10975;47.872;12.972;2022-08-11T18:11:31;23.10;97.90
21627;DHT22;10975;47.872;12.972;2022-08-11T18:14:36;22.90;98.70
21627;DHT22;10975;47.872;12.972;2022-08-11T18:17:22;22.70;99.90
21627;DHT22;10975;47.872;12.972;2022-08-11T18:20:08;22.50;99.50
21627;DHT22;10975;47.872;12.972;2022-08-11T18:22:53;22.40;99.90
21627;DHT22;10975;47.872;12.972;2022-08-11T18:25:41;22.30;99.90
21627;DHT22;10975;47.872;12.972;2022-08-11T18:28:36;22.20;99.90
21627;DHT22;10975;47.872;12.972;2022-08-11T18:31:21;22.00;99.90
21627;DHT22;10975;47.872;12.972;2022-08-11T18:34:09;21.80;99.90
21627;DHT22;10975;47.872;12.972;2022-08-11T18:37:01;21.70;99.90
21627;DHT22;10975;47.872;12.972;2022-08-11T18:39:55;21.60;99.90
21627;DHT22;10975;47.872;12.972;2022-08-11T18:42:41;21.50;99.90
21627;DHT22;10975;47.872;12.972;2022-08-11T18:45:27;21.40;99.90
21627;DHT22;10975;47.872;12.972;2022-08-11T18:48:20;21.30;99.90
21627;DHT22;10975;47.872;12.972;2022-08-11T18:51:08;21.20;99.90
21627;DHT22;10975;47.872;12.972;2022-08-11T18:54:06;21.20;99.90
21627;DHT22;10975;47.872;12.972;2022-08-11T18:56:52;21.10;99.90
21627;DHT22;10975;47.872;12.972;2022-08-11T18:59:40;21.00;99.90
21627;DHT22;10975;47.872;12.972;2022-08-11T19:02:26;20.90;99.90
21627;DHT22;10975;47.872;12.972;2022-08-11T19:05:16;20.90;99.90
21627;DHT22;10975;47.872;12.972;2022-08-11T19:08:22;20.80;99.90
21627;DHT22;10975;47.872;12.972;2022-08-11T19:11:08;20.80;99.90
21627;DHT22;10975;47.872;12.972;2022-08-11T19:13:55;20.80;99.90
21627;DHT22;10975;47.872;12.972;2022-08-11T19:16:41;20.70;99.90
21627;DHT22;10975;47.872;12.972;2022-08-11T19:19:27;20.60;99.90
21627;DHT22;10975;47.872;12.972;2022-08-11T19:22:14;20.50;99.90
21627;DHT22;10975;47.872;12.972;2022-08-11T19:25:01;20.40;99.90
21627;DHT22;10975;47.872;12.972;2022-08-11T19:27:52;20.30;99.90
21627;DHT22;10975;47.872;12.972;2022-08-11T19:30:38;20.20;99.90
21627;DHT22;10975;47.872;12.972;2022-08-11T19:33:23;20.20;99.90
21627;DHT22;10975;47.872;12.972;2022-08-11T19:36:29;20.20;99.90
21627;DHT22;10975;47.872;12.972;2022-08-11T19:39:15;20.20;99.90
21627;DHT22;10975;47.872;12.972;2022-08-11T19:42:01;20.20;99.90
21627;DHT22;10975;47.872;12.972;2022-08-11T19:44:47;20.10;99.90
21627;DHT22;10975;47.872;12.972;2022-08-11T19:47:32;19.90;99.90
21627;DHT22;10975;47.872;12.972;2022-08-11T19:50:37;19.90;99.90
21627;DHT22;10975;47.872;12.972;2022-08-11T19:53:25;19.80;99.90
21627;DHT22;10975;47.872;12.972;2022-08-11T19:56:11;19.70;99.90
21627;DHT22;10975;47.872;12.972;2022-08-11T19:58:56;19.70;99.90